sensor_id;sensor_type;location;lat;lon;timestamp;P1;durP1;ratioP1;P2;durP2;ratioP2
56130;SDS011;42000;44.774;20.506;2023-02-27T06:38:39;16.05;;;9.00;;
56130;SDS011;42000;44.774;20.506;2023-02-27T06:41:05;18.42;;;11.70;;
56130;SDS011;42000;44.774;20.506;2023-02-27T06:43:31;17.80;;;12.18;;
56130;SDS011;42000;44.774;20.506;2023-02-27T06:45:58;18.77;;;12.02;;
56130;SDS011;42000;44.774;20.506;2023-02-27T06:48:25;18.30;;;12.93;;
56130;SDS011;42000;44.774;20.506;2023-02-27T06:50:54;25.88;;;14.93;;
56130;SDS011;42000;44.774;20.506;2023-02-27T06:53:21;31.23;;;18.65;;
56130;SDS011;42000;44.774;20.506;2023-02-27T06:55:47;43.53;;;24.70;;
56130;SDS011;42000;44.774;20.506;2023-02-27T06:58:13;34.17;;;21.52;;
56130;SDS011;42000;44.774;20.506;2023-02-27T07:00:39;22.73;;;14.32;;
56130;SDS011;42000;44.774;20.506;2023-02-27T07:03:07;18.73;;;12.98;;
56130;SDS011;42000;44.774;20.506;2023-02-27T07:05:33;17.17;;;10.98;;
56130;SDS011;42000;44.774;20.506;2023-02-27T07:07:59;24.13;;;15.35;;
56130;SDS011;42000;44.774;20.506;2023-02-27T07:10:26;25.90;;;16.05;;
56130;SDS011;42000;44.774;20.506;2023-02-27T07:12:52;29.73;;;18.45;;
56130;SDS011;42000;44.774;20.506;2023-02-27T07:15:19;30.42;;;17.23;;
56130;SDS011;42000;44.774;20.506;2023-02-27T07:17:45;35.47;;;19.27;;
56130;SDS011;42000;44.774;20.506;2023-02-27T07:20:11;41.78;;;21.75;;
56130;SDS011;42000;44.774;20.506;2023-02-27T07:22:38;39.72;;;19.65;;
56130;SDS011;42000;44.774;20.506;2023-02-27T07:25:04;28.98;;;16.48;;
56130;SDS011;42000;44.774;20.506;2023-02-27T07:27:31;29.48;;;16.85;;
56130;SDS011;42000;44.774;20.506;2023-02-27T07:29:57;35.40;;;18.88;;
56130;SDS011;42000;44.774;20.506;2023-02-27T07:32:23;31.25;;;17.80;;
56130;SDS011;42000;44.774;20.506;2023-02-27T07:34:49;28.20;;;16.25;;
56130;SDS011;42000;44.774;20.506;2023-02-27T07:37:15;29.35;;;16.90;;
56130;SDS011;42000;44.774;20.506;2023-02-27T07:39:41;24.83;;;15.48;;
56130;SDS011;42000;44.774;20.506;2023-02-27T07:42:07;28.65;;;18.35;;
56130;SDS011;42000;44.774;20.506;2023-02-27T07:44:33;26.85;;;16.33;;
56130;SDS011;42000;44.774;20.506;2023-02-27T07:46:59;23.40;;;15.13;;
56130;SDS011;42000;44.774;20.506;2023-02-27T07:49:25;21.58;;;14.63;;
56130;SDS011;42000;44.774;20.506;2023-02-27T07:51:52;23.40;;;15.50;;
56130;SDS011;42000;44.774;20.506;2023-02-27T07:54:18;23.33;;;14.82;;
56130;SDS011;42000;44.774;20.506;2023-02-27T07:56:44;21.42;;;14.82;;
56130;SDS011;42000;44.774;20.506;2023-02-27T07:59:10;25.42;;;15.98;;
56130;SDS011;42000;44.774;20.506;2023-02-27T08:01:36;25.92;;;15.40;;
56130;SDS011;42000;44.774;20.506;2023-02-27T08:04:02;24.05;;;14.75;;
56130;SDS011;42000;44.774;20.506;2023-02-27T08:06:28;22.15;;;15.30;;
56130;SDS011;42000;44.774;20.506;2023-02-27T08:08:54;21.35;;;14.60;;
56130;SDS011;42000;44.774;20.506;2023-02-27T08:11:20;28.50;;;17.08;;
56130;SDS011;42000;44.774;20.506;2023-02-27T08:13:46;30.85;;;18.95;;
56130;SDS011;42000;44.774;20.506;2023-02-27T08:16:14;30.88;;;18.58;;
56130;SDS011;42000;44.774;20.506;2023-02-27T08:18:40;27.67;;;16.17;;
56130;SDS011;42000;44.774;20.506;2023-02-27T08:21:06;24.30;;;15.20;;
56130;SDS011;42000;44.774;20.506;2023-02-27T08:23:32;23.13;;;14.68;;
56130;SDS011;42000;44.774;20.506;2023-02-27T08:25:58;23.75;;;14.27;;
56130;SDS011;42000;44.774;20.506;2023-02-27T08:28:25;26.00;;;15.57;;
56130;SDS011;42000;44.774;20.506;2023-02-27T08:30:52;27.42;;;16.00;;
56130;SDS011;42000;44.774;20.506;2023-02-27T08:33:19;23.67;;;13.93;;
56130;SDS011;42000;44.774;20.506;2023-02-27T08:35:45;24.60;;;15.00;;
56130;SDS011;42000;44.774;20.506;2023-02-27T08:38:11;25.45;;;14.82;;
56130;SDS011;42000;44.774;20.506;2023-02-27T08:40:37;22.95;;;14.05;;
56130;SDS011;42000;44.774;20.506;2023-02-27T08:43:03;22.65;;;14.02;;
56130;SDS011;42000;44.774;20.506;2023-02-27T08:45:29;20.10;;;12.70;;
56130;SDS011;42000;44.774;20.506;2023-02-27T08:47:55;19.15;;;12.68;;
56130;SDS011;42000;44.774;20.506;2023-02-27T08:50:21;23.73;;;14.10;;
56130;SDS011;42000;44.774;20.506;2023-02-27T08:52:47;21.15;;;12.18;;
56130;SDS011;42000;44.774;20.506;2023-02-27T08:55:13;21.80;;;13.00;;
56130;SDS011;42000;44.774;20.506;2023-02-27T08:57:39;20.50;;;12.20;;
56130;SDS011;42000;44.774;20.506;2023-02-27T09:00:05;22.35;;;12.23;;
56130;SDS011;42000;44.774;20.506;2023-02-27T09:02:32;19.05;;;12.13;;
56130;SDS011;42000;44.774;20.506;2023-02-27T09:04:58;43.05;;;22.58;;
56130;SDS011;42000;44.774;20.506;2023-02-27T09:07:25;45.42;;;25.77;;
56130;SDS011;42000;44.774;20.506;2023-02-27T09:09:52;26.58;;;16.10;;
56130;SDS011;42000;44.774;20.506;2023-02-27T09:12:18;22.42;;;12.88;;
56130;SDS011;42000;44.774;20.506;2023-02-27T09:14:44;17.23;;;10.82;;
56130;SDS011;42000;44.774;20.506;2023-02-27T09:17:10;19.77;;;11.35;;
56130;SDS011;42000;44.774;20.506;2023-02-27T09:19:36;17.92;;;9.98;;
56130;SDS011;42000;44.774;20.506;2023-02-27T09:22:02;16.23;;;9.70;;
56130;SDS011;42000;44.774;20.506;2023-02-27T09:24:28;12.15;;;8.23;;
56130;SDS011;42000;44.774;20.506;2023-02-27T09:26:54;14.57;;;8.73;;
56130;SDS011;42000;44.774;20.506;2023-02-27T09:29:20;16.77;;;10.63;;
56130;SDS011;42000;44.774;20.506;2023-02-27T09:31:47;18.65;;;12.70;;
56130;SDS011;42000;44.774;20.506;2023-02-27T09:34:13;21.55;;;13.02;;
56130;SDS011;42000;44.774;20.506;2023-02-27T09:36:39;14.80;;;8.40;;
56130;SDS011;42000;44.774;20.506;2023-02-27T09:39:05;16.75;;;10.27;;
56130;SDS011;42000;44.774;20.506;2023-02-27T09:46:56;17.30;;;10.02;;
56130;SDS011;42000;44.774;20.506;2023-02-27T09:49:23;58.88;;;36.63;;
56130;SDS011;42000;44.774;20.506;2023-02-27T09:51:50;20.40;;;11.82;;
56130;SDS011;42000;44.774;20.506;2023-02-27T09:54:17;18.10;;;11.63;;
56130;SDS011;42000;44.774;20.506;2023-02-27T10:17:20;13.50;;;8.30;;
56130;SDS011;42000;44.774;20.506;2023-02-27T10:19:47;15.88;;;9.52;;
56130;SDS011;42000;44.774;20.506;2023-02-27T10:22:17;15.60;;;8.63;;
56130;SDS011;42000;44.774;20.506;2023-02-27T10:24:50;15.27;;;9.18;;
56130;SDS011;42000;44.774;20.506;2023-02-27T10:27:18;14.85;;;9.30;;
56130;SDS011;42000;44.774;20.506;2023-02-27T10:29:44;12.45;;;8.40;;
56130;SDS011;42000;44.774;20.506;2023-02-27T10:32:16;12.93;;;8.55;;
56130;SDS011;42000;44.774;20.506;2023-02-27T10:34:45;13.13;;;7.95;;
56130;SDS011;42000;44.774;20.506;2023-02-27T10:37:13;14.50;;;9.40;;
56130;SDS011;42000;44.774;20.506;2023-02-27T10:39:44;26.40;;;15.57;;
56130;SDS011;42000;44.774;20.506;2023-02-27T10:42:11;37.40;;;19.05;;
56130;SDS011;42000;44.774;20.506;2023-02-27T10:44:39;13.57;;;8.40;;
56130;SDS011;42000;44.774;20.506;2023-02-27T10:47:05;17.50;;;9.60;;
56130;SDS011;42000;44.774;20.506;2023-02-27T10:49:31;16.65;;;8.52;;
56130;SDS011;42000;44.774;20.506;2023-02-27T10:54:29;13.35;;;7.88;;
56130;SDS011;42000;44.774;20.506;2023-02-27T10:56:56;18.27;;;9.85;;
56130;SDS011;42000;44.774;20.506;2023-02-27T10:59:27;14.65;;;9.50;;
56130;SDS011;42000;44.774;20.506;2023-02-27T11:01:54;15.43;;;9.40;;
56130;SDS011;42000;44.774;20.506;2023-02-27T11:04:25;14.80;;;10.15;;
56130;SDS011;42000;44.774;20.506;2023-02-27T11:06:51;19.70;;;11.40;;
56130;SDS011;42000;44.774;20.506;2023-02-27T11:11:45;19.52;;;13.20;;
56130;SDS011;42000;44.774;20.506;2023-02-27T11:14:22;21.00;;;13.15;;
56130;SDS011;42000;44.774;20.506;2023-02-27T11:16:53;21.02;;;13.43;;
56130;SDS011;42000;44.774;20.506;2023-02-27T11:19:23;21.48;;;14.32;;
56130;SDS011;42000;44.774;20.506;2023-02-27T11:22:00;23.25;;;14.25;;
56130;SDS011;42000;44.774;20.506;2023-02-27T11:24:26;27.90;;;16.30;;
56130;SDS011;42000;44.774;20.506;2023-02-27T11:26:54;22.80;;;13.80;;
56130;SDS011;42000;44.774;20.506;2023-02-27T11:29:21;22.05;;;13.55;;
56130;SDS011;42000;44.774;20.506;2023-02-27T11:34:34;37.47;;;22.58;;
56130;SDS011;42000;44.774;20.506;2023-02-27T11:37:01;22.48;;;15.25;;
56130;SDS011;42000;44.774;20.506;2023-02-27T11:39:30;25.42;;;15.95;;
56130;SDS011;42000;44.774;20.506;2023-02-27T11:41:58;24.88;;;14.95;;
56130;SDS011;42000;44.774;20.506;2023-02-27T11:44:29;25.55;;;15.90;;
56130;SDS011;42000;44.774;20.506;2023-02-27T11:47:06;23.65;;;13.98;;
56130;SDS011;42000;44.774;20.506;2023-02-27T11:49:34;27.88;;;16.02;;
56130;SDS011;42000;44.774;20.506;2023-02-27T11:57:10;23.17;;;12.60;;
56130;SDS011;42000;44.774;20.506;2023-02-27T12:00:40;21.23;;;12.85;;
56130;SDS011;42000;44.774;20.506;2023-02-27T12:02:41;21.05;;;13.05;;
56130;SDS011;42000;44.774;20.506;2023-02-27T12:05:12;23.75;;;13.32;;
56130;SDS011;42000;44.774;20.506;2023-02-27T12:15:20;27.27;;;15.57;;
56130;SDS011;42000;44.774;20.506;2023-02-27T12:17:58;29.58;;;15.30;;
56130;SDS011;42000;44.774;20.506;2023-02-27T12:22:53;25.25;;;16.27;;
56130;SDS011;42000;44.774;20.506;2023-02-27T12:33:37;25.13;;;15.02;;
56130;SDS011;42000;44.774;20.506;2023-02-27T12:36:09;22.98;;;14.65;;
56130;SDS011;42000;44.774;20.506;2023-02-27T12:38:36;25.02;;;15.63;;
56130;SDS011;42000;44.774;20.506;2023-02-27T12:43:44;23.90;;;15.88;;
56130;SDS011;42000;44.774;20.506;2023-02-27T12:46:18;25.80;;;18.15;;
56130;SDS011;42000;44.774;20.506;2023-02-27T12:51:30;26.17;;;16.77;;
56130;SDS011;42000;44.774;20.506;2023-02-27T12:56:57;25.88;;;15.65;;
56130;SDS011;42000;44.774;20.506;2023-02-27T13:07:26;49.88;;;28.52;;
56130;SDS011;42000;44.774;20.506;2023-02-27T13:10:02;32.72;;;18.90;;
56130;SDS011;42000;44.774;20.506;2023-02-27T13:15:05;18.38;;;12.70;;
56130;SDS011;42000;44.774;20.506;2023-02-27T13:22:49;39.38;;;20.98;;
56130;SDS011;42000;44.774;20.506;2023-02-27T13:25:18;46.53;;;24.60;;
56130;SDS011;42000;44.774;20.506;2023-02-27T13:27:57;37.03;;;19.27;;
56130;SDS011;42000;44.774;20.506;2023-02-27T13:30:34;64.60;;;30.90;;
56130;SDS011;42000;44.774;20.506;2023-02-27T13:35:36;59.13;;;29.58;;
56130;SDS011;42000;44.774;20.506;2023-02-27T13:40:51;29.13;;;16.80;;
56130;SDS011;42000;44.774;20.506;2023-02-27T13:45:55;23.70;;;14.35;;
56130;SDS011;42000;44.774;20.506;2023-02-27T13:51:00;29.80;;;17.77;;
56130;SDS011;42000;44.774;20.506;2023-02-27T13:53:27;28.10;;;15.02;;
56130;SDS011;42000;44.774;20.506;2023-02-27T13:58:37;33.95;;;19.13;;
56130;SDS011;42000;44.774;20.506;2023-02-27T14:01:04;26.85;;;14.05;;
56130;SDS011;42000;44.774;20.506;2023-02-27T14:03:30;27.45;;;15.63;;
56130;SDS011;42000;44.774;20.506;2023-02-27T14:05:57;23.98;;;15.13;;
56130;SDS011;42000;44.774;20.506;2023-02-27T14:08:25;24.02;;;15.05;;
56130;SDS011;42000;44.774;20.506;2023-02-27T14:11:37;30.88;;;17.05;;
56130;SDS011;42000;44.774;20.506;2023-02-27T14:18:59;49.40;;;22.75;;
56130;SDS011;42000;44.774;20.506;2023-02-27T14:24:12;44.65;;;21.88;;
56130;SDS011;42000;44.774;20.506;2023-02-27T14:26:39;40.35;;;20.20;;
56130;SDS011;42000;44.774;20.506;2023-02-27T14:29:11;33.00;;;17.55;;
56130;SDS011;42000;44.774;20.506;2023-02-27T14:31:38;41.03;;;22.45;;
56130;SDS011;42000;44.774;20.506;2023-02-27T14:34:05;25.10;;;14.50;;
56130;SDS011;42000;44.774;20.506;2023-02-27T14:36:41;18.58;;;11.35;;
56130;SDS011;42000;44.774;20.506;2023-02-27T14:39:17;18.75;;;12.00;;
56130;SDS011;42000;44.774;20.506;2023-02-27T14:44:24;20.40;;;12.35;;
56130;SDS011;42000;44.774;20.506;2023-02-27T14:46:51;19.70;;;12.25;;
56130;SDS011;42000;44.774;20.506;2023-02-27T14:49:19;20.23;;;12.70;;
56130;SDS011;42000;44.774;20.506;2023-02-27T14:51:46;16.00;;;11.07;;
56130;SDS011;42000;44.774;20.506;2023-02-27T14:54:18;22.73;;;12.95;;
56130;SDS011;42000;44.774;20.506;2023-02-27T15:01:48;26.25;;;15.63;;
56130;SDS011;42000;44.774;20.506;2023-02-27T15:04:16;20.80;;;13.27;;
56130;SDS011;42000;44.774;20.506;2023-02-27T15:06:45;29.17;;;15.73;;
56130;SDS011;42000;44.774;20.506;2023-02-27T15:09:17;27.55;;;15.77;;
56130;SDS011;42000;44.774;20.506;2023-02-27T15:11:46;26.83;;;15.02;;
56130;SDS011;42000;44.774;20.506;2023-02-27T15:14:14;38.40;;;19.52;;
56130;SDS011;42000;44.774;20.506;2023-02-27T15:16:42;31.25;;;17.92;;
56130;SDS011;42000;44.774;20.506;2023-02-27T15:19:19;32.85;;;17.90;;
56130;SDS011;42000;44.774;20.506;2023-02-27T15:21:49;35.22;;;19.13;;
56130;SDS011;42000;44.774;20.506;2023-02-27T15:24:23;33.50;;;17.88;;
56130;SDS011;42000;44.774;20.506;2023-02-27T15:26:54;198.45;;;75.53;;
56130;SDS011;42000;44.774;20.506;2023-02-27T15:29:21;39.35;;;19.67;;
56130;SDS011;42000;44.774;20.506;2023-02-27T15:31:48;28.02;;;16.13;;
56130;SDS011;42000;44.774;20.506;2023-02-27T15:34:15;26.10;;;15.30;;
56130;SDS011;42000;44.774;20.506;2023-02-27T15:36:44;42.58;;;23.23;;
56130;SDS011;42000;44.774;20.506;2023-02-27T15:41:44;22.15;;;13.18;;
56130;SDS011;42000;44.774;20.506;2023-02-27T15:44:12;48.80;;;25.20;;
56130;SDS011;42000;44.774;20.506;2023-02-27T15:46:38;27.63;;;14.57;;
56130;SDS011;42000;44.774;20.506;2023-02-27T15:49:05;27.02;;;15.93;;
56130;SDS011;42000;44.774;20.506;2023-02-27T15:51:31;58.47;;;29.65;;
56130;SDS011;42000;44.774;20.506;2023-02-27T15:53:58;33.35;;;18.58;;
56130;SDS011;42000;44.774;20.506;2023-02-27T15:56:26;35.90;;;18.38;;
56130;SDS011;42000;44.774;20.506;2023-02-27T15:58:56;27.70;;;15.85;;
56130;SDS011;42000;44.774;20.506;2023-02-27T16:01:24;18.55;;;11.45;;
56130;SDS011;42000;44.774;20.506;2023-02-27T16:03:53;62.35;;;30.52;;
56130;SDS011;42000;44.774;20.506;2023-02-27T16:06:22;24.33;;;13.98;;
56130;SDS011;42000;44.774;20.506;2023-02-27T16:08:54;18.85;;;11.52;;
56130;SDS011;42000;44.774;20.506;2023-02-27T16:11:23;32.75;;;18.27;;
56130;SDS011;42000;44.774;20.506;2023-02-27T16:13:49;24.02;;;15.27;;
56130;SDS011;42000;44.774;20.506;2023-02-27T16:18:45;24.60;;;14.55;;
56130;SDS011;42000;44.774;20.506;2023-02-27T16:21:22;26.42;;;16.23;;
56130;SDS011;42000;44.774;20.506;2023-02-27T16:23:48;75.97;;;35.42;;
56130;SDS011;42000;44.774;20.506;2023-02-27T16:31:27;30.33;;;17.40;;
56130;SDS011;42000;44.774;20.506;2023-02-27T16:33:54;26.92;;;15.30;;
56130;SDS011;42000;44.774;20.506;2023-02-27T16:36:21;48.35;;;22.17;;
56130;SDS011;42000;44.774;20.506;2023-02-27T16:38:48;39.88;;;19.75;;
56130;SDS011;42000;44.774;20.506;2023-02-27T16:41:14;55.22;;;28.02;;
56130;SDS011;42000;44.774;20.506;2023-02-27T16:43:41;38.65;;;21.60;;
56130;SDS011;42000;44.774;20.506;2023-02-27T16:46:09;32.22;;;19.67;;
56130;SDS011;42000;44.774;20.506;2023-02-27T16:48:35;30.30;;;17.10;;
56130;SDS011;42000;44.774;20.506;2023-02-27T16:51:01;32.22;;;18.08;;
56130;SDS011;42000;44.774;20.506;2023-02-27T16:53:27;32.50;;;19.00;;
56130;SDS011;42000;44.774;20.506;2023-02-27T16:55:53;40.97;;;24.48;;
56130;SDS011;42000;44.774;20.506;2023-02-27T16:58:20;54.28;;;29.08;;
56130;SDS011;42000;44.774;20.506;2023-02-27T17:00:46;40.50;;;23.45;;
56130;SDS011;42000;44.774;20.506;2023-02-27T17:03:12;35.10;;;20.05;;
56130;SDS011;42000;44.774;20.506;2023-02-27T17:05:38;35.13;;;20.05;;
56130;SDS011;42000;44.774;20.506;2023-02-27T17:08:05;39.83;;;20.52;;
56130;SDS011;42000;44.774;20.506;2023-02-27T17:10:31;45.00;;;23.00;;
56130;SDS011;42000;44.774;20.506;2023-02-27T17:12:57;54.15;;;27.75;;
56130;SDS011;42000;44.774;20.506;2023-02-27T17:15:23;41.78;;;22.25;;
56130;SDS011;42000;44.774;20.506;2023-02-27T17:17:51;38.85;;;21.80;;
56130;SDS011;42000;44.774;20.506;2023-02-27T17:20:18;42.95;;;22.17;;
56130;SDS011;42000;44.774;20.506;2023-02-27T17:22:45;39.10;;;20.58;;
56130;SDS011;42000;44.774;20.506;2023-02-27T17:25:12;43.70;;;22.88;;
56130;SDS011;42000;44.774;20.506;2023-02-27T17:27:38;40.88;;;22.48;;
56130;SDS011;42000;44.774;20.506;2023-02-27T17:30:04;49.42;;;26.05;;
56130;SDS011;42000;44.774;20.506;2023-02-27T17:32:31;53.92;;;27.63;;
56130;SDS011;42000;44.774;20.506;2023-02-27T17:34:58;55.75;;;29.55;;
56130;SDS011;42000;44.774;20.506;2023-02-27T17:37:24;46.85;;;24.75;;
56130;SDS011;42000;44.774;20.506;2023-02-27T17:39:51;53.53;;;27.20;;
56130;SDS011;42000;44.774;20.506;2023-02-27T17:42:17;55.85;;;29.83;;
56130;SDS011;42000;44.774;20.506;2023-02-27T17:44:46;65.32;;;33.88;;
56130;SDS011;42000;44.774;20.506;2023-02-27T17:47:12;60.28;;;31.90;;
56130;SDS011;42000;44.774;20.506;2023-02-27T17:49:39;64.38;;;34.88;;
56130;SDS011;42000;44.774;20.506;2023-02-27T17:52:05;68.00;;;37.20;;
56130;SDS011;42000;44.774;20.506;2023-02-27T17:54:32;55.03;;;30.38;;
56130;SDS011;42000;44.774;20.506;2023-02-27T17:56:58;62.78;;;34.17;;
56130;SDS011;42000;44.774;20.506;2023-02-27T17:59:24;65.93;;;35.63;;
56130;SDS011;42000;44.774;20.506;2023-02-27T18:01:50;66.30;;;34.40;;
56130;SDS011;42000;44.774;20.506;2023-02-27T18:04:16;75.72;;;37.55;;
56130;SDS011;42000;44.774;20.506;2023-02-27T18:06:42;67.28;;;35.83;;
56130;SDS011;42000;44.774;20.506;2023-02-27T18:09:08;68.63;;;35.85;;
56130;SDS011;42000;44.774;20.506;2023-02-27T18:11:35;69.05;;;35.97;;
56130;SDS011;42000;44.774;20.506;2023-02-27T18:14:02;63.45;;;33.42;;
56130;SDS011;42000;44.774;20.506;2023-02-27T18:16:28;62.00;;;32.90;;
56130;SDS011;42000;44.774;20.506;2023-02-27T18:18:54;73.85;;;39.78;;
56130;SDS011;42000;44.774;20.506;2023-02-27T18:21:21;45.67;;;26.25;;
56130;SDS011;42000;44.774;20.506;2023-02-27T18:23:48;59.65;;;32.45;;
56130;SDS011;42000;44.774;20.506;2023-02-27T18:26:17;69.43;;;36.00;;
56130;SDS011;42000;44.774;20.506;2023-02-27T18:28:43;63.05;;;34.00;;
56130;SDS011;42000;44.774;20.506;2023-02-27T18:31:19;62.65;;;32.20;;
56130;SDS011;42000;44.774;20.506;2023-02-27T18:33:45;61.00;;;32.00;;
56130;SDS011;42000;44.774;20.506;2023-02-27T18:36:11;53.55;;;28.02;;
56130;SDS011;42000;44.774;20.506;2023-02-27T18:38:38;49.17;;;27.35;;
56130;SDS011;42000;44.774;20.506;2023-02-27T18:41:04;49.30;;;27.08;;
56130;SDS011;42000;44.774;20.506;2023-02-27T18:43:30;48.92;;;27.55;;
56130;SDS011;42000;44.774;20.506;2023-02-27T18:45:57;48.28;;;26.02;;
56130;SDS011;42000;44.774;20.506;2023-02-27T18:48:23;51.85;;;27.05;;
56130;SDS011;42000;44.774;20.506;2023-02-27T18:50:49;49.83;;;27.52;;
56130;SDS011;42000;44.774;20.506;2023-02-27T18:53:15;51.20;;;28.27;;
56130;SDS011;42000;44.774;20.506;2023-02-27T18:55:42;53.55;;;28.63;;
56130;SDS011;42000;44.774;20.506;2023-02-27T18:58:08;53.45;;;28.02;;
56130;SDS011;42000;44.774;20.506;2023-02-27T19:00:34;50.22;;;27.88;;
56130;SDS011;42000;44.774;20.506;2023-02-27T19:03:03;43.10;;;26.35;;
56130;SDS011;42000;44.774;20.506;2023-02-27T19:05:29;43.38;;;25.10;;
56130;SDS011;42000;44.774;20.506;2023-02-27T19:07:56;45.05;;;25.52;;
56130;SDS011;42000;44.774;20.506;2023-02-27T19:10:22;38.95;;;23.58;;
56130;SDS011;42000;44.774;20.506;2023-02-27T19:12:48;42.85;;;25.20;;
56130;SDS011;42000;44.774;20.506;2023-02-27T19:15:15;39.42;;;22.92;;
56130;SDS011;42000;44.774;20.506;2023-02-27T19:17:41;41.42;;;25.33;;
56130;SDS011;42000;44.774;20.506;2023-02-27T19:20:07;46.35;;;25.67;;
56130;SDS011;42000;44.774;20.506;2023-02-27T19:22:38;54.63;;;29.00;;
56130;SDS011;42000;44.774;20.506;2023-02-27T19:25:04;64.35;;;34.78;;
56130;SDS011;42000;44.774;20.506;2023-02-27T19:27:30;66.15;;;35.55;;
56130;SDS011;42000;44.774;20.506;2023-02-27T19:29:56;72.63;;;38.15;;
56130;SDS011;42000;44.774;20.506;2023-02-27T19:32:25;83.10;;;45.90;;
56130;SDS011;42000;44.774;20.506;2023-02-27T19:34:51;82.40;;;44.20;;
56130;SDS011;42000;44.774;20.506;2023-02-27T19:37:17;82.28;;;44.47;;
56130;SDS011;42000;44.774;20.506;2023-02-27T19:39:43;78.22;;;41.10;;
56130;SDS011;42000;44.774;20.506;2023-02-27T19:42:10;71.95;;;38.47;;
56130;SDS011;42000;44.774;20.506;2023-02-27T19:44:36;64.85;;;35.03;;
56130;SDS011;42000;44.774;20.506;2023-02-27T19:47:04;70.18;;;38.80;;
56130;SDS011;42000;44.774;20.506;2023-02-27T19:49:30;53.63;;;29.80;;
56130;SDS011;42000;44.774;20.506;2023-02-27T19:51:56;66.38;;;37.47;;
56130;SDS011;42000;44.774;20.506;2023-02-27T19:54:22;56.47;;;31.30;;
56130;SDS011;42000;44.774;20.506;2023-02-27T19:56:48;54.45;;;30.63;;
56130;SDS011;42000;44.774;20.506;2023-02-27T19:59:16;46.75;;;27.67;;
56130;SDS011;42000;44.774;20.506;2023-02-27T20:01:42;61.20;;;35.65;;
56130;SDS011;42000;44.774;20.506;2023-02-27T20:04:09;49.28;;;28.08;;
56130;SDS011;42000;44.774;20.506;2023-02-27T20:06:35;49.55;;;29.92;;
56130;SDS011;42000;44.774;20.506;2023-02-27T20:09:05;45.38;;;27.35;;
56130;SDS011;42000;44.774;20.506;2023-02-27T20:11:31;54.75;;;31.90;;
56130;SDS011;42000;44.774;20.506;2023-02-27T20:13:57;38.42;;;22.95;;
56130;SDS011;42000;44.774;20.506;2023-02-27T20:16:23;43.63;;;23.95;;
56130;SDS011;42000;44.774;20.506;2023-02-27T20:18:52;37.28;;;21.67;;
56130;SDS011;42000;44.774;20.506;2023-02-27T20:21:21;35.55;;;20.10;;
56130;SDS011;42000;44.774;20.506;2023-02-27T20:23:48;41.42;;;25.13;;
56130;SDS011;42000;44.774;20.506;2023-02-27T20:26:17;52.25;;;31.30;;
56130;SDS011;42000;44.774;20.506;2023-02-27T20:28:43;50.92;;;28.20;;
56130;SDS011;42000;44.774;20.506;2023-02-27T20:31:10;48.00;;;27.73;;
56130;SDS011;42000;44.774;20.506;2023-02-27T20:33:37;48.55;;;27.80;;
56130;SDS011;42000;44.774;20.506;2023-02-27T20:36:03;46.28;;;26.00;;
56130;SDS011;42000;44.774;20.506;2023-02-27T20:38:30;37.95;;;21.98;;
56130;SDS011;42000;44.774;20.506;2023-02-27T20:40:57;41.08;;;22.40;;
56130;SDS011;42000;44.774;20.506;2023-02-27T20:43:23;38.72;;;21.77;;
56130;SDS011;42000;44.774;20.506;2023-02-27T20:45:49;38.88;;;21.08;;
56130;SDS011;42000;44.774;20.506;2023-02-27T20:48:15;39.40;;;22.92;;
56130;SDS011;42000;44.774;20.506;2023-02-27T20:50:41;45.15;;;25.05;;
56130;SDS011;42000;44.774;20.506;2023-02-27T20:53:07;44.95;;;24.10;;
56130;SDS011;42000;44.774;20.506;2023-02-27T20:55:33;44.88;;;25.60;;
56130;SDS011;42000;44.774;20.506;2023-02-27T20:57:59;40.47;;;23.08;;
56130;SDS011;42000;44.774;20.506;2023-02-27T21:00:25;37.05;;;20.75;;
56130;SDS011;42000;44.774;20.506;2023-02-27T21:02:52;42.13;;;21.90;;
56130;SDS011;42000;44.774;20.506;2023-02-27T21:05:18;41.67;;;21.73;;
56130;SDS011;42000;44.774;20.506;2023-02-27T21:07:45;31.90;;;17.73;;
56130;SDS011;42000;44.774;20.506;2023-02-27T21:10:11;26.60;;;14.52;;
56130;SDS011;42000;44.774;20.506;2023-02-27T21:12:38;33.63;;;19.95;;
56130;SDS011;42000;44.774;20.506;2023-02-27T21:15:04;30.83;;;19.00;;
56130;SDS011;42000;44.774;20.506;2023-02-27T21:17:30;39.53;;;21.73;;
56130;SDS011;42000;44.774;20.506;2023-02-27T21:19:57;35.13;;;21.73;;
56130;SDS011;42000;44.774;20.506;2023-02-27T21:22:23;33.30;;;19.05;;
56130;SDS011;42000;44.774;20.506;2023-02-27T21:24:49;33.67;;;19.92;;
56130;SDS011;42000;44.774;20.506;2023-02-27T21:27:16;41.67;;;22.88;;
56130;SDS011;42000;44.774;20.506;2023-02-27T21:29:45;39.50;;;22.35;;
56130;SDS011;42000;44.774;20.506;2023-02-27T21:32:11;40.80;;;23.88;;
56130;SDS011;42000;44.774;20.506;2023-02-27T21:34:37;34.85;;;18.15;;
56130;SDS011;42000;44.774;20.506;2023-02-27T21:37:03;31.65;;;19.70;;
56130;SDS011;42000;44.774;20.506;2023-02-27T21:39:31;31.70;;;18.35;;
56130;SDS011;42000;44.774;20.506;2023-02-27T21:41:57;38.25;;;22.38;;
56130;SDS011;42000;44.774;20.506;2023-02-27T21:44:23;34.80;;;20.17;;
56130;SDS011;42000;44.774;20.506;2023-02-27T21:46:50;39.65;;;23.27;;
56130;SDS011;42000;44.774;20.506;2023-02-27T21:49:17;32.63;;;17.65;;
56130;SDS011;42000;44.774;20.506;2023-02-27T21:51:43;27.65;;;16.42;;
56130;SDS011;42000;44.774;20.506;2023-02-27T21:54:10;26.45;;;16.65;;
56130;SDS011;42000;44.774;20.506;2023-02-27T21:56:36;32.58;;;19.00;;
56130;SDS011;42000;44.774;20.506;2023-02-27T21:59:03;38.92;;;21.48;;
56130;SDS011;42000;44.774;20.506;2023-02-27T22:01:29;39.72;;;22.95;;
56130;SDS011;42000;44.774;20.506;2023-02-27T22:03:55;43.95;;;25.73;;
56130;SDS011;42000;44.774;20.506;2023-02-27T22:06:22;41.92;;;23.92;;
56130;SDS011;42000;44.774;20.506;2023-02-27T22:08:55;46.47;;;26.50;;
56130;SDS011;42000;44.774;20.506;2023-02-27T22:11:22;47.25;;;27.23;;
56130;SDS011;42000;44.774;20.506;2023-02-27T22:13:48;48.80;;;26.50;;
56130;SDS011;42000;44.774;20.506;2023-02-27T22:16:14;54.80;;;29.50;;
56130;SDS011;42000;44.774;20.506;2023-02-27T22:18:40;52.85;;;29.88;;
56130;SDS011;42000;44.774;20.506;2023-02-27T22:21:16;53.35;;;29.27;;
56130;SDS011;42000;44.774;20.506;2023-02-27T22:23:43;49.63;;;28.15;;
56130;SDS011;42000;44.774;20.506;2023-02-27T22:26:16;51.53;;;28.08;;
56130;SDS011;42000;44.774;20.506;2023-02-27T22:28:42;55.22;;;29.25;;
56130;SDS011;42000;44.774;20.506;2023-02-27T22:33:35;70.25;;;33.80;;
56130;SDS011;42000;44.774;20.506;2023-02-27T22:36:09;59.38;;;31.00;;
56130;SDS011;42000;44.774;20.506;2023-02-27T22:38:36;50.55;;;26.52;;
56130;SDS011;42000;44.774;20.506;2023-02-27T22:41:11;48.08;;;27.50;;
56130;SDS011;42000;44.774;20.506;2023-02-27T22:43:37;49.47;;;27.65;;
56130;SDS011;42000;44.774;20.506;2023-02-27T22:46:07;51.45;;;28.42;;
56130;SDS011;42000;44.774;20.506;2023-02-27T22:48:34;52.10;;;28.65;;
56130;SDS011;42000;44.774;20.506;2023-02-27T22:51:03;50.72;;;28.13;;